createdAt,value
2023-02-24T00:01:51.677Z,44.34
2023-02-24T00:04:21.537Z,45.08
2023-02-24T00:06:49.888Z,44.21
2023-02-24T00:09:20.069Z,43.89
2023-02-24T00:11:54.894Z,44.61
2023-02-24T00:14:24.665Z,44.86
2023-02-24T00:16:53.630Z,43.88
2023-02-24T00:19:23.539Z,44.50
2023-02-24T00:21:54.221Z,44.42
2023-02-24T00:24:23.249Z,43.75
2023-02-24T00:26:57.295Z,43.78
2023-02-24T00:29:25.454Z,43.17
2023-02-24T00:31:59.079Z,44.68
2023-02-24T00:34:27.382Z,44.22
2023-02-24T00:36:57.437Z,44.08
2023-02-24T00:39:30.631Z,44.08
2023-02-24T00:42:04.724Z,44.26
2023-02-24T00:44:33.838Z,44.43
2023-02-24T00:47:02.768Z,44.06
2023-02-24T00:49:30.807Z,44.01
2023-02-24T00:51:59.109Z,44.01
2023-02-24T00:54:28.347Z,42.40
2023-02-24T00:56:57.159Z,43.12
2023-02-24T00:59:26.424Z,42.71
2023-02-24T01:01:55.561Z,43.99
2023-02-24T01:04:23.811Z,43.60
2023-02-24T01:07:00.039Z,42.79
2023-02-24T01:09:29.516Z,43.93
2023-02-24T01:12:16.457Z,43.22
2023-02-24T01:14:48.688Z,42.94
2023-02-24T01:17:18.164Z,41.79
2023-02-24T01:19:49.073Z,42.80
2023-02-24T01:22:19.611Z,43.23
2023-02-24T01:24:48.228Z,43.32
2023-02-24T01:27:18.590Z,42.46
2023-02-24T01:29:48.098Z,42.46
2023-02-24T01:32:18.688Z,42.55
2023-02-24T01:34:47.118Z,43.18
2023-02-24T01:37:16.905Z,42.62
2023-02-24T01:39:45.155Z,42.33
2023-02-24T01:42:19.212Z,43.49
2023-02-24T01:45:13.129Z,43.37
2023-02-24T01:47:42.353Z,43.51
2023-02-24T01:50:14.946Z,42.17
2023-02-24T01:52:45.866Z,42.76
2023-02-24T01:55:20.029Z,42.93
2023-02-24T01:57:49.890Z,43.06
2023-02-24T02:00:37.413Z,42.86
2023-02-24T02:03:19.020Z,42.28
2023-02-24T02:05:48.489Z,42.59
2023-02-24T02:08:18.925Z,43.22
2023-02-24T02:10:47.651Z,43.32
2023-02-24T02:13:21.047Z,42.50
2023-02-24T02:16:06.251Z,43.83
2023-02-24T02:18:46.546Z,43.68
2023-02-24T02:21:55.023Z,43.07
2023-02-24T02:24:40.971Z,41.11
2023-02-24T02:27:23.840Z,42.74
2023-02-24T02:30:29.592Z,42.55
2023-02-24T02:33:30.929Z,42.99
2023-02-24T02:36:13.014Z,42.02
2023-02-24T02:38:50.615Z,41.85
2023-02-24T02:41:25.581Z,42.06
2023-02-24T02:44:03.768Z,42.16
2023-02-24T02:46:37.242Z,42.69
2023-02-24T02:49:15.094Z,42.90
2023-02-24T02:51:51.672Z,42.15
2023-02-24T02:54:27.358Z,41.86
2023-02-24T02:57:01.353Z,42.38
2023-02-24T02:59:32.194Z,41.89
2023-02-24T03:02:11.488Z,42.85
2023-02-24T03:04:43.460Z,41.45
2023-02-24T03:07:17.760Z,43.00
2023-02-24T03:09:51.659Z,40.80
2023-02-24T03:12:23.716Z,41.92
2023-02-24T03:14:59.048Z,41.94
2023-02-24T03:17:31.072Z,40.77
2023-02-24T03:20:13.078Z,40.67
2023-02-24T03:22:47.059Z,41.01
2023-02-24T03:25:16.821Z,41.50
2023-02-24T03:27:50.128Z,41.26
2023-02-24T03:30:26.733Z,40.94
2023-02-24T03:32:59.157Z,40.92
2023-02-24T03:35:32.261Z,41.20
2023-02-24T03:38:06.252Z,40.10
2023-02-24T03:40:35.441Z,40.37
2023-02-24T03:43:09.128Z,40.22
2023-02-24T03:45:38.427Z,40.07
2023-02-24T03:48:07.749Z,39.83
2023-02-24T03:50:38.058Z,40.11
2023-02-24T03:53:38.788Z,39.62
2023-02-24T03:56:20.008Z,39.14
2023-02-24T03:59:03.000Z,40.75
2023-02-24T04:01:37.571Z,40.55
2023-02-24T04:04:15.848Z,39.53
2023-02-24T04:06:57.880Z,39.86
2023-02-24T04:09:39.811Z,40.27
2023-02-24T04:12:19.925Z,40.33
2023-02-24T04:14:56.901Z,39.44
2023-02-24T04:17:31.173Z,38.31
2023-02-24T04:20:09.176Z,37.32
2023-02-24T04:22:40.927Z,38.47
2023-02-24T04:25:13.652Z,37.17
2023-02-24T04:27:44.609Z,38.42
2023-02-24T04:30:16.546Z,38.90
2023-02-24T04:32:44.908Z,38.41
2023-02-24T04:35:16.923Z,38.41
2023-02-24T04:37:50.497Z,38.79
2023-02-24T04:40:23.027Z,39.37
2023-02-24T04:42:52.161Z,38.53
2023-02-24T04:45:22.828Z,39.55
2023-02-24T04:47:53.149Z,40.37
2023-02-24T04:50:25.870Z,39.85
2023-02-24T04:52:55.600Z,40.38
2023-02-24T04:55:29.453Z,39.92
2023-02-24T04:57:58.269Z,39.63
2023-02-24T05:00:29.397Z,40.67
2023-02-24T05:02:58.097Z,40.41
2023-02-24T05:05:27.706Z,40.41
2023-02-24T05:08:02.892Z,39.92
2023-02-24T05:10:36.420Z,39.54
2023-02-24T05:13:06.660Z,40.28
2023-02-24T05:15:35.271Z,39.78
2023-02-24T05:18:07.601Z,39.50
2023-02-24T05:20:55.378Z,40.30
2023-02-24T05:23:26.303Z,39.55
2023-02-24T05:25:55.921Z,40.20
2023-02-24T05:28:24.136Z,38.96
2023-02-24T05:30:53.745Z,39.26
2023-02-24T05:33:22.450Z,38.98
2023-02-24T05:35:51.455Z,39.46
2023-02-24T05:38:20.461Z,39.51
2023-02-24T05:40:48.868Z,40.69
2023-02-24T05:43:18.338Z,39.10
2023-02-24T05:45:46.546Z,40.61
2023-02-24T05:48:15.618Z,39.68
2023-02-24T05:50:46.677Z,39.63
2023-02-24T05:53:15.100Z,39.17
2023-02-24T05:55:43.621Z,39.19
2023-02-24T05:58:11.616Z,38.93
2023-02-24T06:00:45.248Z,38.58
2023-02-24T06:03:17.524Z,38.91
2023-02-24T06:05:53.380Z,38.27
2023-02-24T06:08:24.310Z,38.75
2023-02-24T06:10:52.093Z,40.00
2023-02-24T06:13:19.921Z,39.00
2023-02-24T06:15:50.624Z,39.35
2023-02-24T06:18:18.779Z,39.30
2023-02-24T06:20:51.225Z,39.24
2023-02-24T06:23:19.443Z,38.39
2023-02-24T06:25:47.364Z,39.40
2023-02-24T06:28:15.226Z,38.71
2023-02-24T06:30:43.095Z,39.72
2023-02-24T06:33:12.441Z,39.43
2023-02-24T06:35:40.330Z,39.02
2023-02-24T06:38:08.182Z,38.79
2023-02-24T06:40:37.800Z,38.45
2023-02-24T06:43:05.733Z,39.63
2023-02-24T06:45:33.733Z,38.84
2023-02-24T06:48:03.133Z,37.84
2023-02-24T06:50:32.846Z,38.57
2023-02-24T06:53:02.618Z,40.41
2023-02-24T06:55:30.626Z,39.57
2023-02-24T06:58:04.673Z,37.78
2023-02-24T07:00:39.789Z,37.48
2023-02-24T07:03:15.701Z,37.22
2023-02-24T07:05:50.509Z,38.50
2023-02-24T07:08:23.088Z,38.84
2023-02-24T07:10:55.954Z,38.28
2023-02-24T07:13:25.364Z,38.00
2023-02-24T07:15:53.310Z,39.00
2023-02-24T07:18:21.146Z,39.33
2023-02-24T07:20:50.548Z,38.00
2023-02-24T07:23:18.428Z,37.28
2023-02-24T07:25:47.228Z,39.46
2023-02-24T07:28:17.066Z,38.10
2023-02-24T07:30:45.769Z,38.40
2023-02-24T07:33:14.316Z,37.81
2023-02-24T07:35:42.390Z,38.71
2023-02-24T07:38:17.070Z,38.36
2023-02-24T07:40:47.195Z,38.72
2023-02-24T07:43:15.985Z,38.19
2023-02-24T07:45:47.418Z,37.99
2023-02-24T07:48:15.894Z,38.24
2023-02-24T07:50:43.811Z,37.18
2023-02-24T07:53:13.041Z,38.38
2023-02-24T07:55:41.706Z,38.14
2023-02-24T07:58:10.673Z,38.58
2023-02-24T08:00:58.802Z,38.43
2023-02-24T08:03:29.937Z,37.76
2023-02-24T08:06:12.908Z,37.45
2023-02-24T08:08:57.865Z,38.21
2023-02-24T08:11:27.526Z,38.56
2023-02-24T08:13:57.875Z,37.59
2023-02-24T08:16:34.514Z,38.38
2023-02-24T08:19:03.455Z,38.45
2023-02-24T08:21:38.006Z,39.84
2023-02-24T08:24:09.284Z,39.29
2023-02-24T08:26:44.668Z,40.03
2023-02-24T08:29:13.366Z,39.37
2023-02-24T08:31:43.225Z,38.50
2023-02-24T08:34:15.986Z,38.25
2023-02-24T08:36:55.827Z,37.19
2023-02-24T08:39:25.266Z,36.74
2023-02-24T08:41:54.866Z,36.97
2023-02-24T08:44:23.003Z,37.69
2023-02-24T08:46:52.336Z,37.45
2023-02-24T08:49:24.854Z,35.45
2023-02-24T08:51:53.972Z,36.83
2023-02-24T08:54:27.244Z,35.85
2023-02-24T08:56:57.867Z,36.08
2023-02-24T08:59:37.887Z,36.38
2023-02-24T09:02:24.211Z,35.74
2023-02-24T09:04:55.167Z,36.63
2023-02-24T09:07:25.649Z,36.95
2023-02-24T09:09:56.398Z,36.60
2023-02-24T09:12:28.980Z,36.07
2023-02-24T09:15:01.050Z,36.71
2023-02-24T09:17:50.549Z,36.12
2023-02-24T09:20:38.482Z,37.16
2023-02-24T09:23:07.616Z,37.85
2023-02-24T09:25:44.907Z,36.38
2023-02-24T09:28:18.034Z,36.64
2023-02-24T09:30:58.476Z,36.76
2023-02-24T09:33:29.051Z,37.35
2023-02-24T09:36:09.757Z,36.86
2023-02-24T09:39:02.346Z,36.68
2023-02-24T09:41:45.207Z,36.09
2023-02-24T09:44:19.198Z,37.67
2023-02-24T09:46:54.852Z,36.36
2023-02-24T09:49:28.494Z,37.83
2023-02-24T09:52:08.945Z,38.10
2023-02-24T09:54:36.972Z,37.81
2023-02-24T09:57:16.704Z,37.11
2023-02-24T10:00:22.130Z,37.00
2023-02-24T10:03:00.187Z,37.23
2023-02-24T10:05:38.343Z,36.28
2023-02-24T10:08:13.696Z,36.27
2023-02-24T10:11:00.833Z,37.21
2023-02-24T10:13:33.186Z,37.82
2023-02-24T10:16:07.131Z,37.72
2023-02-24T10:18:44.018Z,37.42
2023-02-24T10:21:30.684Z,36.94
2023-02-24T10:24:14.398Z,37.29
2023-02-24T10:26:59.548Z,36.96
2023-02-24T10:29:43.323Z,37.92
2023-02-24T10:32:23.893Z,37.94
2023-02-24T10:34:53.079Z,37.88
2023-02-24T10:37:28.629Z,39.08
2023-02-24T10:39:59.351Z,40.36
2023-02-24T10:42:31.629Z,39.51
2023-02-24T10:45:17.974Z,39.87
2023-02-24T10:47:56.825Z,38.81
2023-02-24T10:50:29.776Z,38.66
2023-02-24T10:53:34.518Z,38.97
2023-02-24T10:56:31.657Z,40.81
2023-02-24T10:59:37.529Z,40.68
2023-02-24T11:02:29.440Z,40.32
2023-02-24T11:05:25.021Z,41.20
2023-02-24T11:08:15.808Z,41.29
2023-02-24T11:10:58.688Z,39.82
2023-02-24T11:13:45.731Z,38.78
2023-02-24T11:16:30.969Z,39.92
2023-02-24T11:18:59.146Z,39.00
2023-02-24T11:21:29.312Z,40.03
2023-02-24T11:24:02.818Z,41.99
2023-02-24T11:26:37.222Z,41.31
2023-02-24T11:29:19.747Z,40.59
2023-02-24T11:32:00.177Z,42.60
2023-02-24T11:34:35.210Z,43.19
2023-02-24T11:37:15.520Z,42.39
2023-02-24T11:39:54.313Z,42.67
2023-02-24T11:42:27.018Z,42.43
2023-02-24T11:45:00.948Z,41.46
2023-02-24T11:47:36.735Z,44.08
2023-02-24T11:50:19.153Z,42.91
2023-02-24T11:52:51.051Z,43.57
2023-02-24T11:55:28.315Z,43.62
2023-02-24T11:58:01.383Z,44.48
2023-02-24T12:00:34.347Z,44.54
2023-02-24T12:03:13.019Z,44.81
2023-02-24T12:05:44.794Z,43.44
2023-02-24T12:08:25.700Z,43.74
2023-02-24T12:10:59.868Z,43.15
2023-02-24T12:13:38.175Z,44.11
2023-02-24T12:16:11.693Z,45.36
2023-02-24T12:18:42.195Z,44.16
2023-02-24T12:21:16.427Z,44.23
2023-02-24T12:23:48.277Z,45.62
2023-02-24T12:26:21.058Z,44.84
2023-02-24T12:29:09.710Z,45.41
2023-02-24T12:31:53.454Z,44.28
2023-02-24T12:34:33.920Z,44.58
2023-02-24T12:37:21.124Z,44.42
2023-02-24T12:40:05.753Z,44.72
2023-02-24T12:42:42.360Z,45.13
2023-02-24T12:45:18.369Z,44.78
2023-02-24T12:48:00.311Z,46.64
2023-02-24T12:50:38.467Z,46.96
2023-02-24T12:53:17.356Z,44.87
2023-02-24T12:55:56.398Z,46.63
2023-02-24T12:58:27.863Z,45.67
2023-02-24T13:01:06.549Z,45.07
2023-02-24T13:03:55.787Z,45.60
2023-02-24T13:06:34.052Z,45.92
2023-02-24T13:09:08.198Z,45.45
2023-02-24T13:11:47.993Z,46.75
2023-02-24T13:14:25.596Z,46.23
2023-02-24T13:17:05.365Z,47.09
2023-02-24T13:19:33.382Z,45.29
2023-02-24T13:22:08.669Z,43.96
2023-02-24T13:24:37.563Z,44.15
2023-02-24T13:27:21.646Z,45.17
2023-02-24T13:29:51.159Z,44.07
2023-02-24T13:32:29.555Z,44.26
2023-02-24T13:34:58.990Z,44.54
2023-02-24T13:37:33.165Z,45.17
2023-02-24T13:40:01.521Z,45.00
2023-02-24T13:42:32.277Z,44.82
2023-02-24T13:45:17.350Z,43.55
2023-02-24T13:48:12.745Z,45.74
2023-02-24T13:50:53.107Z,44.95
2023-02-24T13:53:35.420Z,45.48
2023-02-24T13:56:21.215Z,46.21
2023-02-24T13:59:20.816Z,44.11
2023-02-24T14:01:51.494Z,44.92
2023-02-24T14:04:23.662Z,45.54
2023-02-24T14:06:54.050Z,44.69
2023-02-24T14:09:25.761Z,45.17
2023-02-24T14:12:04.524Z,45.59
2023-02-24T14:14:35.322Z,44.97
2023-02-24T14:17:03.152Z,45.24
2023-02-24T14:19:30.941Z,44.94
2023-02-24T14:22:01.780Z,45.04
2023-02-24T14:24:30.301Z,45.08
2023-02-24T14:27:00.294Z,45.81
2023-02-24T14:29:31.789Z,47.34
2023-02-24T14:32:02.322Z,46.84
2023-02-24T14:34:33.919Z,45.92
2023-02-24T14:37:04.722Z,45.87
2023-02-24T14:39:34.249Z,45.97
2023-02-24T14:42:12.915Z,46.54
2023-02-24T14:44:44.067Z,44.96
2023-02-24T14:47:16.547Z,45.74
2023-02-24T14:49:54.448Z,46.07
2023-02-24T14:52:30.732Z,45.52
2023-02-24T14:55:03.352Z,47.68
2023-02-24T14:57:35.498Z,46.74
2023-02-24T15:00:11.767Z,43.87
2023-02-24T15:02:47.597Z,44.98
2023-02-24T15:05:16.872Z,44.63
2023-02-24T15:07:46.100Z,45.30
2023-02-24T15:10:22.149Z,44.14
2023-02-24T15:12:52.957Z,44.68
2023-02-24T15:15:23.515Z,44.78
2023-02-24T15:17:55.692Z,46.01
2023-02-24T15:20:32.850Z,43.65
2023-02-24T15:23:01.099Z,43.62
2023-02-24T15:25:41.908Z,45.63
2023-02-24T15:28:24.711Z,45.05
2023-02-24T15:31:02.717Z,44.48
2023-02-24T15:33:36.497Z,45.56
2023-02-24T15:36:11.175Z,45.68
2023-02-24T15:38:40.994Z,45.82
2023-02-24T15:41:11.072Z,43.40
2023-02-24T15:43:47.284Z,43.73
2023-02-24T15:46:26.294Z,44.98
2023-02-24T15:48:57.441Z,44.57
2023-02-24T15:51:35.119Z,43.79
2023-02-24T15:54:04.770Z,44.01
2023-02-24T15:56:35.445Z,43.25
2023-02-24T15:59:03.326Z,42.48
2023-02-24T16:01:32.567Z,42.89
2023-02-24T16:04:04.572Z,43.44
2023-02-24T16:06:33.904Z,43.22
2023-02-24T16:09:05.218Z,43.75
2023-02-24T16:11:38.467Z,44.82
2023-02-24T16:14:06.491Z,45.86
2023-02-24T16:16:34.261Z,47.26
2023-02-24T16:19:03.529Z,45.72
2023-02-24T16:21:31.352Z,45.93
2023-02-24T16:23:59.221Z,46.31
2023-02-24T16:26:27.061Z,47.16
2023-02-24T16:28:56.362Z,47.77
2023-02-24T16:31:25.449Z,48.67
2023-02-24T16:33:55.602Z,46.79
2023-02-24T16:36:26.315Z,46.01
2023-02-24T16:38:54.438Z,47.22
2023-02-24T16:41:22.631Z,47.42
2023-02-24T16:43:50.770Z,47.12
2023-02-24T16:46:22.406Z,47.50
2023-02-24T16:48:53.185Z,45.45
2023-02-24T16:51:21.506Z,46.64
2023-02-24T16:53:50.692Z,46.59
2023-02-24T16:56:18.502Z,48.51
2023-02-24T16:58:46.228Z,47.68
2023-02-24T17:01:20.024Z,47.19
2023-02-24T17:03:50.787Z,46.38
2023-02-24T17:06:21.603Z,45.33
2023-02-24T17:08:51.318Z,45.07
2023-02-24T17:11:21.765Z,45.54
2023-02-24T17:13:49.573Z,46.63
2023-02-24T17:16:17.355Z,46.02
2023-02-24T17:18:45.216Z,43.92
2023-02-24T17:21:14.422Z,46.74
2023-02-24T17:23:43.500Z,45.96
2023-02-24T17:26:15.371Z,46.17
2023-02-24T17:28:43.188Z,45.43
2023-02-24T17:31:11.082Z,45.58
2023-02-24T17:33:39.063Z,44.52
2023-02-24T17:36:07.405Z,46.37
2023-02-24T17:38:35.244Z,45.57
2023-02-24T17:41:03.336Z,45.65
2023-02-24T17:43:32.477Z,44.71
2023-02-24T17:46:06.497Z,43.65
2023-02-24T17:48:35.057Z,45.47
2023-02-24T17:51:02.856Z,45.23
2023-02-24T17:53:31.203Z,46.68
2023-02-24T17:56:03.424Z,47.01
2023-02-24T17:58:33.324Z,47.42
2023-02-24T18:01:02.069Z,45.49
2023-02-24T18:03:30.498Z,45.08
2023-02-24T18:06:03.071Z,45.28
2023-02-24T18:08:31.400Z,44.76
2023-02-24T18:11:00.834Z,45.30
2023-02-24T18:13:29.906Z,43.91
2023-02-24T18:15:59.733Z,44.48
2023-02-24T18:18:30.224Z,46.77
2023-02-24T18:21:02.640Z,45.22
2023-02-24T18:23:30.883Z,44.57
2023-02-24T18:26:02.274Z,45.48
2023-02-24T18:28:30.230Z,45.48
2023-02-24T18:31:00.573Z,44.60
2023-02-24T18:33:29.278Z,44.36
2023-02-24T18:36:00.681Z,44.88
2023-02-24T18:38:29.243Z,44.86
2023-02-24T18:41:01.669Z,44.17
2023-02-24T18:43:30.276Z,43.54
2023-02-24T18:46:02.090Z,44.64
2023-02-24T18:48:31.742Z,43.92
2023-02-24T18:51:00.561Z,44.00
2023-02-24T18:53:31.322Z,44.13
2023-02-24T18:56:03.517Z,43.73
2023-02-24T18:58:32.129Z,43.27
2023-02-24T19:01:01.313Z,43.09
2023-02-24T19:03:29.085Z,43.33
2023-02-24T19:05:56.808Z,41.80
2023-02-24T19:08:24.702Z,42.44
2023-02-24T19:10:52.400Z,42.34
2023-02-24T19:13:20.540Z,43.90
2023-02-24T19:15:48.412Z,42.41
2023-02-24T19:18:17.913Z,42.97
2023-02-24T19:20:45.673Z,42.99
2023-02-24T19:23:13.413Z,43.99
2023-02-24T19:25:41.180Z,43.79
2023-02-24T19:28:08.920Z,43.02
2023-02-24T19:30:39.080Z,44.35
2023-02-24T19:33:07.048Z,44.29
2023-02-24T19:35:40.288Z,43.95
2023-02-24T19:38:08.060Z,44.05
2023-02-24T19:40:36.452Z,43.55
2023-02-24T19:43:04.411Z,43.62
2023-02-24T19:45:32.289Z,43.89
2023-02-24T19:48:00.146Z,42.85
2023-02-24T19:50:28.387Z,42.58
2023-02-24T19:52:57.659Z,43.25
2023-02-24T19:55:25.674Z,44.27
2023-02-24T19:57:54.795Z,42.85
2023-02-24T20:00:23.477Z,43.58
2023-02-24T20:02:53.191Z,42.14
2023-02-24T20:05:21.315Z,42.10
2023-02-24T20:07:49.038Z,42.17
2023-02-24T20:10:18.736Z,43.49
2023-02-24T20:12:46.542Z,43.19
2023-02-24T20:15:15.373Z,43.13
2023-02-24T20:17:43.146Z,42.31
2023-02-24T20:20:13.024Z,41.88
2023-02-24T20:22:41.161Z,44.18
2023-02-24T20:25:09.529Z,45.34
2023-02-24T20:27:38.651Z,43.93
2023-02-24T20:30:07.254Z,43.15
2023-02-24T20:32:35.380Z,42.03
2023-02-24T20:35:03.329Z,43.11
2023-02-24T20:37:31.211Z,43.83
2023-02-24T20:39:59.045Z,42.98
2023-02-24T20:42:26.801Z,42.29
2023-02-24T20:44:55.991Z,42.61
2023-02-24T20:47:23.806Z,42.51
2023-02-24T20:49:51.512Z,42.86
2023-02-24T20:52:19.256Z,44.33
2023-02-24T20:54:46.965Z,43.55
2023-02-24T20:57:14.845Z,42.73
2023-02-24T20:59:49.263Z,44.38
2023-02-24T21:02:23.835Z,43.49
2023-02-24T21:04:51.660Z,44.72
2023-02-24T21:07:19.410Z,43.88
2023-02-24T21:09:47.270Z,44.20
2023-02-24T21:12:15.044Z,43.51
2023-02-24T21:14:43.720Z,44.39
2023-02-24T21:17:12.406Z,45.50
2023-02-24T21:19:43.124Z,45.38
2023-02-24T21:22:10.841Z,45.91
2023-02-24T21:24:38.601Z,46.14
2023-02-24T21:27:06.423Z,47.03
2023-02-24T21:29:34.154Z,46.26
2023-02-24T21:32:03.225Z,46.43
2023-02-24T21:34:31.610Z,46.37
2023-02-24T21:37:01.602Z,46.22
2023-02-24T21:39:29.433Z,47.38
2023-02-24T21:41:57.261Z,46.42
2023-02-24T21:44:25.630Z,46.31
2023-02-24T21:46:53.449Z,45.33
2023-02-24T21:49:23.449Z,45.50
2023-02-24T21:51:51.627Z,44.73
2023-02-24T21:54:20.753Z,45.62
2023-02-24T21:56:48.613Z,44.81
2023-02-24T21:59:16.380Z,44.52
2023-02-24T22:01:45.827Z,45.86
2023-02-24T22:04:15.968Z,45.93
2023-02-24T22:06:44.575Z,45.79
2023-02-24T22:09:14.217Z,46.29
2023-02-24T22:11:43.352Z,46.88
2023-02-24T22:14:13.573Z,46.29
2023-02-24T22:16:42.937Z,47.16
2023-02-24T22:19:11.619Z,45.90
2023-02-24T22:21:42.262Z,46.76
2023-02-24T22:24:13.175Z,45.73
2023-02-24T22:26:41.289Z,45.06
2023-02-24T22:29:10.970Z,45.87
2023-02-24T22:31:39.516Z,45.91
2023-02-24T22:34:08.744Z,44.94
2023-02-24T22:36:37.741Z,45.55
2023-02-24T22:39:07.162Z,44.88
2023-02-24T22:41:35.880Z,45.40
2023-02-24T22:44:05.674Z,45.21
2023-02-24T22:46:37.422Z,46.13
2023-02-24T22:49:05.570Z,45.29
2023-02-24T22:51:33.509Z,44.70
2023-02-24T22:54:01.254Z,45.33
2023-02-24T22:56:29.922Z,45.21
2023-02-24T22:58:58.337Z,45.05
2023-02-24T23:01:28.704Z,44.28
2023-02-24T23:04:00.767Z,44.14
2023-02-24T23:06:28.728Z,44.70
2023-02-24T23:08:59.007Z,44.95
2023-02-24T23:11:29.431Z,44.15
2023-02-24T23:13:59.588Z,43.53
2023-02-24T23:16:31.525Z,42.84
2023-02-24T23:19:04.188Z,42.85
2023-02-24T23:21:34.954Z,43.26
2023-02-24T23:24:04.014Z,42.25
2023-02-24T23:26:33.188Z,43.43
2023-02-24T23:29:01.324Z,42.65
2023-02-24T23:31:29.378Z,42.49
2023-02-24T23:33:57.907Z,43.00
2023-02-24T23:36:27.329Z,43.15
2023-02-24T23:38:55.130Z,44.54
2023-02-24T23:41:22.883Z,43.27
2023-02-24T23:43:50.608Z,44.05
2023-02-24T23:46:18.572Z,43.99
2023-02-24T23:48:46.816Z,43.30
2023-02-24T23:51:16.296Z,43.88
2023-02-24T23:53:47.051Z,43.32
2023-02-24T23:56:16.915Z,43.39
2023-02-24T23:58:45.529Z,43.34
